Terminal Aerodrome Forecast
Issued by NWS

Home | Current Version | Previous Version | Text Only | Print | Product List | Glossary On
Versions: 1 2 3 4 5 6 7 8 9 10 11 12 13 14 15 16 17 18
605
FTUS44 KSJT 281738 CCA
TAFSOA
TAF COR
KSOA 281738Z 2818/2918 18011G17KT P6SM SCT040
     FM282200 16011KT P6SM VCTS BKN050CB
     FM290200 14008KT P6SM SCT060 BKN100
     FM290900 16007KT 5SM BR BKN012
     FM291600 17011KT P6SM BKN025=

USA.gov is the U.S. government's official web portal to all federal, state and local government web resources and services.